Trevett, Maine
Current Conditions -  °F | °C
As of 10:53 AM on Tuesday 21 Oct 2014 (Local Time) from KIWI Reporting Station
Overcast Overcast  
Wind Chill: 52°   Ceiling: 3900
Heat Index: 52°   Visibility: 10mi
Dew Point: 45°   Wind: 3mph
Humidity: 77%   Direction: NA
Pressure: 30.07"   Gusts: NA
Location:  43.88°N, 69.67°W
Report Text: KIWI 211453Z AUTO VRB03KT 10SM SCT021 BKN039 OVC050 11/07 A3007 RMK AO2 SLP182 T01110072 50006
Loading
Personal Weather Stations






























Interactive Weather Map
Tropical Storm Tracking
New forecast layout! Learn more

10-Day Weather Forecast

Advertisements
Track Severe Weather on mobile